Time,TemperatureF,DewpointF,PressureIn,WindDirection,WindDirectionDegrees,WindSpeedMPH,WindSpeedGustMPH,Humidity,HourlyPrecipIn,Conditions,Clouds,dailyrainin,SoftwareType,DateUTC
2013-03-07 00:14:00,43.1,38.0,30.00,ESE,115,0.0,1.0,82,0.00,,,0.00,weatherlink.com 1.10,2013-03-07 08:14:00,
2013-03-07 00:29:00,43.1,38.0,30.00,SE,136,1.0,3.0,81,0.00,,,0.00,weatherlink.com 1.10,2013-03-07 08:29:00,
2013-03-07 00:44:00,42.4,37.0,30.00,SSE,152,0.0,1.0,82,0.00,,,0.00,weatherlink.com 1.10,2013-03-07 08:44:00,
2013-03-07 00:59:00,41.9,37.0,29.99,SSE,147,0.0,1.0,84,0.00,,,0.00,weatherlink.com 1.10,2013-03-07 08:59:00,
2013-03-07 01:14:00,42.3,38.0,29.99,SSE,162,1.0,2.0,83,0.00,,,0.00,weatherlink.com 1.10,2013-03-07 09:14:00,
2013-03-07 01:29:00,41.5,37.0,29.99,SE,127,0.0,2.0,84,0.00,,,0.00,weatherlink.com 1.10,2013-03-07 09:29:00,
2013-03-07 01:44:00,41.1,37.0,29.99,SSE,158,0.0,1.0,84,0.00,,,0.00,weatherlink.com 1.10,2013-03-07 09:44:00,
2013-03-07 01:59:00,40.2,36.0,29.99,SSE,158,0.0,0.0,86,0.00,,,0.00,weatherlink.com 1.10,2013-03-07 09:59:00,
2013-03-07 02:14:00,39.5,36.0,29.99,SSE,157,0.0,0.0,87,0.00,,,0.00,weatherlink.com 1.10,2013-03-07 10:14:00,
2013-03-07 02:29:00,40.1,37.0,29.98,SSE,158,0.0,0.0,88,0.00,,,0.00,weatherlink.com 1.10,2013-03-07 10:29:00,
2013-03-07 02:44:00,39.9,37.0,29.98,SSE,158,0.0,0.0,88,0.00,,,0.00,weatherlink.com 1.10,2013-03-07 10:44:00,
2013-03-07 02:59:00,40.2,38.0,29.97,SSE,157,0.0,0.0,90,0.00,,,0.00,weatherlink.com 1.10,2013-03-07 10:59:00,
2013-03-07 03:14:00,40.5,38.0,29.98,WNW,289,2.0,3.0,91,0.00,,,0.00,weatherlink.com 1.10,2013-03-07 11:14:00,
2013-03-07 03:29:00,40.7,38.0,29.98,WNW,288,0.0,2.0,91,0.00,,,0.00,weatherlink.com 1.10,2013-03-07 11:29:00,
2013-03-07 03:44:00,40.7,38.0,29.98,West,278,3.0,4.0,91,0.00,,,0.00,weatherlink.com 1.10,2013-03-07 11:44:00,
2013-03-07 03:59:00,42.5,40.0,29.99,West,273,7.0,11.0,90,0.00,,,0.00,weatherlink.com 1.10,2013-03-07 11:59:00,
2013-03-07 04:15:00,43.6,40.0,29.99,West,268,2.0,6.0,88,0.00,,,0.00,weatherlink.com 1.10,2013-03-07 12:15:00,
2013-03-07 04:30:00,43.9,41.0,29.99,WSW,256,3.0,3.0,89,0.00,,,0.00,weatherlink.com 1.10,2013-03-07 12:30:00,
2013-03-07 04:45:00,43.4,40.0,29.98,WSW,256,0.0,0.0,89,0.00,,,0.00,weatherlink.com 1.10,2013-03-07 12:45:00,
2013-03-07 05:00:00,43.0,40.0,29.98,WSW,255,0.0,1.0,90,0.00,,,0.00,weatherlink.com 1.10,2013-03-07 13:00:00,
2013-03-07 05:15:00,42.5,40.0,29.98,ENE,68,4.0,6.0,91,0.00,,,0.00,weatherlink.com 1.10,2013-03-07 13:15:00,
2013-03-07 05:30:00,42.0,40.0,29.98,ENE,73,4.0,5.0,91,0.00,,,0.00,weatherlink.com 1.10,2013-03-07 13:30:00,
2013-03-07 05:45:00,41.9,40.0,29.99,ENE,78,2.0,3.0,91,0.00,,,0.00,weatherlink.com 1.10,2013-03-07 13:45:00,
2013-03-07 06:00:00,41.2,39.0,29.98,ENE,74,2.0,4.0,91,0.00,,,0.00,weatherlink.com 1.10,2013-03-07 14:00:00,
2013-03-07 06:15:00,40.9,39.0,29.98,East,100,2.0,3.0,91,0.00,,,0.00,weatherlink.com 1.10,2013-03-07 14:15:00,
2013-03-07 06:30:00,40.7,38.0,29.98,East,94,0.0,2.0,90,0.00,,,0.00,weatherlink.com 1.10,2013-03-07 14:30:00,
2013-03-07 06:45:00,40.4,38.0,29.98,East,94,0.0,0.0,91,0.00,,,0.00,weatherlink.com 1.10,2013-03-07 14:45:00,
2013-03-07 07:00:00,39.9,38.0,29.98,East,94,0.0,1.0,91,0.00,,,0.00,weatherlink.com 1.10,2013-03-07 15:00:00,
2013-03-07 07:15:00,39.3,37.0,29.98,SSW,205,1.0,1.0,91,0.00,,,0.00,weatherlink.com 1.10,2013-03-07 15:15:00,
2013-03-07 07:30:00,39.1,37.0,29.98,SSW,203,0.0,1.0,92,0.00,,,0.00,weatherlink.com 1.10,2013-03-07 15:30:00,
2013-03-07 07:45:00,39.5,37.0,29.98,WSW,257,0.0,1.0,92,0.00,,,0.00,weatherlink.com 1.10,2013-03-07 15:45:00,
2013-03-07 08:00:00,41.0,39.0,29.98,West,272,0.0,1.0,91,0.00,,,0.00,weatherlink.com 1.10,2013-03-07 16:00:00,
2013-03-07 08:15:00,40.8,38.0,29.99,WNW,283,2.0,4.0,90,0.00,,,0.00,weatherlink.com 1.10,2013-03-07 16:15:00,
2013-03-07 08:30:00,41.9,39.0,29.99,WSW,245,1.0,2.0,90,0.00,,,0.00,weatherlink.com 1.10,2013-03-07 16:30:00,
2013-03-07 08:45:00,43.2,40.0,29.98,WNW,284,1.0,2.0,87,0.00,,,0.00,weatherlink.com 1.10,2013-03-07 16:45:00,
2013-03-07 09:00:00,43.8,40.0,29.98,West,276,0.0,3.0,87,0.00,,,0.00,weatherlink.com 1.10,2013-03-07 17:00:00,
2013-03-07 09:15:00,45.2,41.0,29.98,WNW,288,1.0,2.0,84,0.00,,,0.00,weatherlink.com 1.10,2013-03-07 17:15:00,
2013-03-07 09:30:00,45.6,41.0,29.98,North,351,0.0,2.0,85,0.00,,,0.00,weatherlink.com 1.10,2013-03-07 17:30:00,
2013-03-07 09:45:00,46.8,41.0,29.98,WNW,293,0.0,1.0,79,0.00,,,0.00,weatherlink.com 1.10,2013-03-07 17:45:00,
2013-03-07 10:00:00,48.0,42.0,29.98,WNW,293,1.0,3.0,79,0.00,,,0.00,weatherlink.com 1.10,2013-03-07 18:00:00,
2013-03-07 10:15:00,47.4,42.0,29.98,WNW,287,2.0,4.0,80,0.00,,,0.00,weatherlink.com 1.10,2013-03-07 18:15:00,
2013-03-07 10:30:00,47.7,42.0,29.99,West,262,2.0,4.0,80,0.00,,,0.00,weatherlink.com 1.10,2013-03-07 18:30:00,
2013-03-07 10:45:00,48.4,43.0,29.98,NW,305,2.0,4.0,81,0.00,,,0.00,weatherlink.com 1.10,2013-03-07 18:45:00,
2013-03-07 11:00:00,48.5,43.0,29.98,WNW,283,1.0,3.0,80,0.00,,,0.00,weatherlink.com 1.10,2013-03-07 19:00:00,
2013-03-07 11:15:00,48.5,42.0,29.98,NNW,337,1.0,4.0,78,0.00,,,0.00,weatherlink.com 1.10,2013-03-07 19:15:00,
2013-03-07 11:30:00,49.3,41.0,29.98,NW,311,1.0,4.0,74,0.00,,,0.00,weatherlink.com 1.10,2013-03-07 19:30:00,
2013-03-07 11:45:00,49.9,42.0,29.98,West,278,0.0,4.0,73,0.00,,,0.00,weatherlink.com 1.10,2013-03-07 19:45:00,
2013-03-07 12:00:00,50.0,41.0,29.98,WNW,290,2.0,5.0,71,0.00,,,0.00,weatherlink.com 1.10,2013-03-07 20:00:00,
2013-03-07 12:15:00,49.8,41.0,29.97,WNW,295,3.0,5.0,71,0.00,,,0.00,weatherlink.com 1.10,2013-03-07 20:15:00,
2013-03-07 12:30:00,49.7,42.0,29.97,WNW,295,5.0,6.0,74,0.00,,,0.00,weatherlink.com 1.10,2013-03-07 20:30:00,
2013-03-07 12:45:00,50.0,41.0,29.97,WNW,302,4.0,7.0,72,0.00,,,0.00,weatherlink.com 1.10,2013-03-07 20:45:00,
2013-03-07 13:00:00,50.4,41.0,29.96,WNW,284,1.0,8.0,70,0.00,,,0.00,weatherlink.com 1.10,2013-03-07 21:00:00,
2013-03-07 13:15:00,50.4,41.0,29.96,WNW,284,3.0,8.0,69,0.00,,,0.00,weatherlink.com 1.10,2013-03-07 21:15:00,
2013-03-07 13:30:00,50.8,41.0,29.96,NW,306,5.0,8.0,69,0.00,,,0.00,weatherlink.com 1.10,2013-03-07 21:30:00,
2013-03-07 13:45:00,51.3,42.0,29.96,NNE,15,3.0,7.0,71,0.00,,,0.00,weatherlink.com 1.10,2013-03-07 21:45:00,
2013-03-07 14:00:00,51.6,42.0,29.96,NNW,333,1.0,4.0,69,0.00,,,0.00,weatherlink.com 1.10,2013-03-07 22:00:00,
2013-03-07 14:15:00,51.4,41.0,29.96,West,277,4.0,8.0,68,0.00,,,0.00,weatherlink.com 1.10,2013-03-07 22:15:00,
2013-03-07 14:30:00,50.9,41.0,29.96,WNW,295,3.0,8.0,70,0.00,,,0.00,weatherlink.com 1.10,2013-03-07 22:30:00,
2013-03-07 14:45:00,50.9,41.0,29.96,NNW,329,2.0,8.0,70,0.00,,,0.00,weatherlink.com 1.10,2013-03-07 22:45:00,
2013-03-07 15:01:00,51.0,42.0,29.97,WNW,297,5.0,7.0,71,0.00,,,0.00,weatherlink.com 1.10,2013-03-07 23:01:00,
2013-03-07 15:16:00,51.2,43.0,29.97,NNE,18,3.0,8.0,74,0.00,,,0.00,weatherlink.com 1.10,2013-03-07 23:16:00,
2013-03-07 15:31:00,50.9,43.0,29.97,NW,325,3.0,9.0,74,0.00,,,0.00,weatherlink.com 1.10,2013-03-07 23:31:00,
2013-03-07 15:46:00,51.2,44.0,29.97,NE,37,5.0,5.0,75,0.00,,,0.00,weatherlink.com 1.10,2013-03-07 23:46:00,
2013-03-07 16:01:00,51.1,43.0,29.97,West,277,1.0,5.0,75,0.00,,,0.00,weatherlink.com 1.10,2013-03-08 00:01:00,
2013-03-07 16:16:00,51.0,44.0,29.98,NNE,23,1.0,6.0,77,0.00,,,0.00,weatherlink.com 1.10,2013-03-08 00:16:00,
2013-03-07 16:31:00,50.7,43.0,29.98,WNW,285,2.0,6.0,76,0.00,,,0.00,weatherlink.com 1.10,2013-03-08 00:31:00,
2013-03-07 16:46:00,50.5,43.0,29.98,NNE,15,3.0,5.0,76,0.00,,,0.00,weatherlink.com 1.10,2013-03-08 00:46:00,
2013-03-07 17:01:00,50.0,43.0,29.98,NNW,343,6.0,8.0,77,0.00,,,0.00,weatherlink.com 1.10,2013-03-08 01:01:00,
2013-03-07 17:31:00,49.7,43.0,29.98,NNE,15,5.0,10.0,79,0.00,,,0.00,weatherlink.com 1.10,2013-03-08 01:31:00,
2013-03-07 17:46:00,49.3,43.0,29.98,NNW,344,4.0,9.0,80,0.00,,,0.00,weatherlink.com 1.10,2013-03-08 01:46:00,
2013-03-07 18:01:00,48.8,44.0,29.98,SW,214,1.0,9.0,82,0.00,,,0.00,weatherlink.com 1.10,2013-03-08 02:01:00,
2013-03-07 18:16:00,47.9,43.0,29.98,SSE,149,1.0,7.0,82,0.00,,,0.00,weatherlink.com 1.10,2013-03-08 02:16:00,
2013-03-07 18:31:00,47.5,43.0,29.99,NNW,335,2.0,8.0,84,0.00,,,0.00,weatherlink.com 1.10,2013-03-08 02:31:00,
2013-03-07 18:46:00,47.3,43.0,29.99,NW,320,1.0,9.0,86,0.00,,,0.00,weatherlink.com 1.10,2013-03-08 02:46:00,
2013-03-07 19:01:00,47.0,43.0,29.99,NW,316,1.0,8.0,87,0.00,,,0.00,weatherlink.com 1.10,2013-03-08 03:01:00,
2013-03-07 19:16:00,46.8,43.0,29.99,SW,226,0.0,5.0,87,0.00,,,0.00,weatherlink.com 1.10,2013-03-08 03:16:00,
2013-03-07 19:31:00,46.7,43.0,30.00,North,360,1.0,6.0,87,0.00,,,0.00,weatherlink.com 1.10,2013-03-08 03:31:00,
2013-03-07 19:46:00,46.6,43.0,29.99,SW,221,0.0,7.0,87,0.00,,,0.00,weatherlink.com 1.10,2013-03-08 03:46:00,
2013-03-07 20:01:00,46.7,43.0,29.99,West,263,0.0,8.0,87,0.00,,,0.00,weatherlink.com 1.10,2013-03-08 04:01:00,
2013-03-07 20:16:00,46.6,43.0,29.99,NE,39,5.0,8.0,88,0.00,,,0.00,weatherlink.com 1.10,2013-03-08 04:16:00,
2013-03-07 20:31:00,46.0,43.0,29.99,NNE,29,2.0,5.0,88,0.00,,,0.00,weatherlink.com 1.10,2013-03-08 04:31:00,
2013-03-07 20:46:00,45.6,42.0,29.99,NE,43,1.0,4.0,88,0.00,,,0.00,weatherlink.com 1.10,2013-03-08 04:46:00,
2013-03-07 21:01:00,45.4,42.0,29.99,NNE,26,0.0,2.0,88,0.00,,,0.00,weatherlink.com 1.10,2013-03-08 05:01:00,
2013-03-07 21:16:00,45.3,42.0,29.99,NE,36,1.0,4.0,89,0.00,,,0.00,weatherlink.com 1.10,2013-03-08 05:16:00,
2013-03-07 21:31:00,45.0,42.0,29.99,NNE,30,1.0,3.0,89,0.00,,,0.00,weatherlink.com 1.10,2013-03-08 05:31:00,
2013-03-07 21:46:00,44.7,41.0,29.99,SSW,203,1.0,2.0,88,0.00,,,0.00,weatherlink.com 1.10,2013-03-08 05:46:00,
2013-03-07 22:01:00,42.9,40.0,29.99,South,177,1.0,2.0,88,0.00,,,0.00,weatherlink.com 1.10,2013-03-08 06:01:00,
2013-03-07 22:31:00,40.9,39.0,29.98,SE,132,0.0,2.0,91,0.00,,,0.00,weatherlink.com 1.10,2013-03-08 06:31:00,
2013-03-07 22:46:00,40.4,38.0,29.98,SSW,211,0.0,2.0,92,0.00,,,0.00,weatherlink.com 1.10,2013-03-08 06:46:00,
2013-03-07 23:01:00,39.9,38.0,29.99,SSE,158,0.0,1.0,92,0.00,,,0.00,weatherlink.com 1.10,2013-03-08 07:01:00,
2013-03-07 23:16:00,39.4,38.0,29.98,WSW,250,0.0,1.0,93,0.00,,,0.00,weatherlink.com 1.10,2013-03-08 07:16:00,
2013-03-07 23:31:00,39.3,38.0,29.98,SSW,196,0.0,2.0,93,0.00,,,0.00,weatherlink.com 1.10,2013-03-08 07:31:00,
2013-03-07 23:46:00,38.9,37.0,29.98,SE,136,0.0,1.0,93,0.00,,,0.00,weatherlink.com 1.10,2013-03-08 07:46:00,